Terminal Aerodrome Forecast
Issued by NWS Caribou, ME

Home | Current Version | Previous Version | Text Only | Print | Product List | Glossary On
Versions: 1 2 3 4 5 6 7 8 9 10 11 12 13 14 15
000
FTUS41 KCAR 211235 AAB
TAFCAR
TAF AMD
KCAR 211235Z 2113/2212 14012G20KT 3SM -RA BR OVC009
     FM220000 14010KT 6SM -RA BKN012
     FM220400 20004KT P6SM BKN045=

USA.gov is the U.S. government's official web portal to all federal, state and local government web resources and services.